sensor_id;sensor_type;location;lat;lon;timestamp;P1;durP1;ratioP1;P2;durP2;ratioP2
5460;SDS011;2753;49.196;8.286;2022-12-10T00:01:31;31.50;;;16.73;;
5460;SDS011;2753;49.196;8.286;2022-12-10T00:03:51;37.30;;;18.37;;
5460;SDS011;2753;49.196;8.286;2022-12-10T00:06:21;35.37;;;18.27;;
5460;SDS011;2753;49.196;8.286;2022-12-10T00:08:49;28.23;;;16.40;;
5460;SDS011;2753;49.196;8.286;2022-12-10T00:11:16;30.57;;;15.60;;
5460;SDS011;2753;49.196;8.286;2022-12-10T00:13:46;31.60;;;16.33;;
5460;SDS011;2753;49.196;8.286;2022-12-10T00:16:13;28.30;;;15.63;;
5460;SDS011;2753;49.196;8.286;2022-12-10T00:18:40;37.70;;;17.60;;
5460;SDS011;2753;49.196;8.286;2022-12-10T00:21:08;31.33;;;17.40;;
5460;SDS011;2753;49.196;8.286;2022-12-10T00:23:36;29.13;;;16.57;;
5460;SDS011;2753;49.196;8.286;2022-12-10T00:26:24;49.23;;;18.20;;
5460;SDS011;2753;49.196;8.286;2022-12-10T00:28:49;32.33;;;15.87;;
5460;SDS011;2753;49.196;8.286;2022-12-10T00:31:17;27.60;;;15.43;;
5460;SDS011;2753;49.196;8.286;2022-12-10T00:33:45;36.30;;;17.97;;
5460;SDS011;2753;49.196;8.286;2022-12-10T00:36:15;32.50;;;18.70;;
5460;SDS011;2753;49.196;8.286;2022-12-10T00:38:43;33.50;;;19.13;;
5460;SDS011;2753;49.196;8.286;2022-12-10T00:41:10;30.07;;;16.27;;
5460;SDS011;2753;49.196;8.286;2022-12-10T00:43:36;42.20;;;17.70;;
5460;SDS011;2753;49.196;8.286;2022-12-10T00:46:02;37.23;;;18.27;;
5460;SDS011;2753;49.196;8.286;2022-12-10T00:48:28;37.17;;;16.47;;
5460;SDS011;2753;49.196;8.286;2022-12-10T00:51:02;39.20;;;18.57;;
5460;SDS011;2753;49.196;8.286;2022-12-10T00:53:36;32.83;;;17.70;;
5460;SDS011;2753;49.196;8.286;2022-12-10T00:56:03;34.87;;;16.30;;
5460;SDS011;2753;49.196;8.286;2022-12-10T00:58:31;30.37;;;16.90;;
5460;SDS011;2753;49.196;8.286;2022-12-10T01:03:38;34.93;;;17.90;;
5460;SDS011;2753;49.196;8.286;2022-12-10T01:06:08;35.43;;;17.20;;
5460;SDS011;2753;49.196;8.286;2022-12-10T01:08:40;34.03;;;16.87;;
5460;SDS011;2753;49.196;8.286;2022-12-10T01:11:07;39.80;;;18.07;;
5460;SDS011;2753;49.196;8.286;2022-12-10T01:13:34;38.70;;;18.13;;
5460;SDS011;2753;49.196;8.286;2022-12-10T01:16:01;33.57;;;16.90;;
5460;SDS011;2753;49.196;8.286;2022-12-10T01:18:27;33.50;;;17.60;;
5460;SDS011;2753;49.196;8.286;2022-12-10T01:20:53;34.00;;;17.77;;
5460;SDS011;2753;49.196;8.286;2022-12-10T01:23:19;41.90;;;20.40;;
5460;SDS011;2753;49.196;8.286;2022-12-10T01:25:45;39.80;;;18.33;;
5460;SDS011;2753;49.196;8.286;2022-12-10T01:28:11;34.50;;;17.60;;
5460;SDS011;2753;49.196;8.286;2022-12-10T01:30:37;31.00;;;16.40;;
5460;SDS011;2753;49.196;8.286;2022-12-10T01:33:02;34.30;;;17.33;;
5460;SDS011;2753;49.196;8.286;2022-12-10T01:35:28;42.03;;;19.33;;
5460;SDS011;2753;49.196;8.286;2022-12-10T01:37:54;36.43;;;17.50;;
5460;SDS011;2753;49.196;8.286;2022-12-10T01:40:19;35.73;;;18.80;;
5460;SDS011;2753;49.196;8.286;2022-12-10T01:42:45;35.30;;;18.50;;
5460;SDS011;2753;49.196;8.286;2022-12-10T01:45:11;37.70;;;18.90;;
5460;SDS011;2753;49.196;8.286;2022-12-10T01:47:37;35.50;;;18.30;;
5460;SDS011;2753;49.196;8.286;2022-12-10T01:50:05;40.17;;;18.80;;
5460;SDS011;2753;49.196;8.286;2022-12-10T01:52:33;31.70;;;16.40;;
5460;SDS011;2753;49.196;8.286;2022-12-10T01:54:59;39.30;;;19.30;;
5460;SDS011;2753;49.196;8.286;2022-12-10T01:57:26;38.37;;;19.20;;
5460;SDS011;2753;49.196;8.286;2022-12-10T01:59:53;41.00;;;20.37;;
5460;SDS011;2753;49.196;8.286;2022-12-10T02:13:29;35.10;;;18.10;;
5460;SDS011;2753;49.196;8.286;2022-12-10T02:16:21;37.83;;;18.80;;
5460;SDS011;2753;49.196;8.286;2022-12-10T02:19:03;40.67;;;17.73;;
5460;SDS011;2753;49.196;8.286;2022-12-10T02:21:39;37.27;;;17.57;;
5460;SDS011;2753;49.196;8.286;2022-12-10T02:24:08;33.40;;;17.47;;
5460;SDS011;2753;49.196;8.286;2022-12-10T02:29:19;35.67;;;18.07;;
5460;SDS011;2753;49.196;8.286;2022-12-10T02:31:47;36.30;;;18.70;;
5460;SDS011;2753;49.196;8.286;2022-12-10T02:34:18;36.23;;;18.20;;
5460;SDS011;2753;49.196;8.286;2022-12-10T02:36:47;37.33;;;18.37;;
5460;SDS011;2753;49.196;8.286;2022-12-10T02:39:17;39.23;;;19.67;;
5460;SDS011;2753;49.196;8.286;2022-12-10T02:41:52;34.90;;;19.00;;
5460;SDS011;2753;49.196;8.286;2022-12-10T02:44:19;36.43;;;18.83;;
5460;SDS011;2753;49.196;8.286;2022-12-10T02:46:48;49.43;;;21.03;;
5460;SDS011;2753;49.196;8.286;2022-12-10T02:49:17;38.30;;;19.83;;
5460;SDS011;2753;49.196;8.286;2022-12-10T02:51:43;43.20;;;21.73;;
5460;SDS011;2753;49.196;8.286;2022-12-10T02:57:00;39.87;;;20.30;;
5460;SDS011;2753;49.196;8.286;2022-12-10T02:59:56;44.80;;;19.73;;
5460;SDS011;2753;49.196;8.286;2022-12-10T03:10:39;46.83;;;20.33;;
5460;SDS011;2753;49.196;8.286;2022-12-10T03:13:09;46.60;;;20.70;;
5460;SDS011;2753;49.196;8.286;2022-12-10T03:15:38;36.87;;;19.50;;
5460;SDS011;2753;49.196;8.286;2022-12-10T03:18:06;44.50;;;21.40;;
5460;SDS011;2753;49.196;8.286;2022-12-10T03:20:34;42.80;;;21.17;;
5460;SDS011;2753;49.196;8.286;2022-12-10T03:23:04;43.20;;;19.23;;
5460;SDS011;2753;49.196;8.286;2022-12-10T03:25:34;35.37;;;18.83;;
5460;SDS011;2753;49.196;8.286;2022-12-10T03:28:02;41.53;;;18.83;;
5460;SDS011;2753;49.196;8.286;2022-12-10T03:30:33;41.20;;;21.10;;
5460;SDS011;2753;49.196;8.286;2022-12-10T03:33:00;40.30;;;19.73;;
5460;SDS011;2753;49.196;8.286;2022-12-10T03:35:27;42.83;;;20.30;;
5460;SDS011;2753;49.196;8.286;2022-12-10T03:37:53;39.03;;;19.60;;
5460;SDS011;2753;49.196;8.286;2022-12-10T03:40:20;38.53;;;19.40;;
5460;SDS011;2753;49.196;8.286;2022-12-10T03:42:47;41.40;;;19.60;;
5460;SDS011;2753;49.196;8.286;2022-12-10T03:45:13;39.70;;;20.63;;
5460;SDS011;2753;49.196;8.286;2022-12-10T03:47:40;43.97;;;20.80;;
5460;SDS011;2753;49.196;8.286;2022-12-10T03:50:06;45.20;;;21.07;;
5460;SDS011;2753;49.196;8.286;2022-12-10T03:52:32;42.97;;;20.93;;
5460;SDS011;2753;49.196;8.286;2022-12-10T03:54:58;42.53;;;21.53;;
5460;SDS011;2753;49.196;8.286;2022-12-10T03:57:23;44.20;;;20.60;;
5460;SDS011;2753;49.196;8.286;2022-12-10T03:59:49;40.83;;;19.50;;
5460;SDS011;2753;49.196;8.286;2022-12-10T04:02:15;38.37;;;19.00;;
5460;SDS011;2753;49.196;8.286;2022-12-10T04:04:41;44.67;;;21.10;;
5460;SDS011;2753;49.196;8.286;2022-12-10T04:07:06;45.13;;;21.03;;
5460;SDS011;2753;49.196;8.286;2022-12-10T04:09:32;45.87;;;22.30;;
5460;SDS011;2753;49.196;8.286;2022-12-10T04:11:58;45.10;;;22.07;;
5460;SDS011;2753;49.196;8.286;2022-12-10T04:14:24;43.77;;;20.77;;
5460;SDS011;2753;49.196;8.286;2022-12-10T04:17:09;42.43;;;21.30;;
5460;SDS011;2753;49.196;8.286;2022-12-10T04:19:35;49.97;;;22.60;;
5460;SDS011;2753;49.196;8.286;2022-12-10T04:22:00;45.57;;;20.83;;
5460;SDS011;2753;49.196;8.286;2022-12-10T04:24:44;40.17;;;21.70;;
5460;SDS011;2753;49.196;8.286;2022-12-10T04:27:38;46.50;;;21.03;;
5460;SDS011;2753;49.196;8.286;2022-12-10T04:30:05;46.77;;;23.00;;
5460;SDS011;2753;49.196;8.286;2022-12-10T04:32:33;40.90;;;20.33;;
5460;SDS011;2753;49.196;8.286;2022-12-10T04:34:58;40.70;;;19.70;;
5460;SDS011;2753;49.196;8.286;2022-12-10T04:37:24;43.90;;;20.67;;
5460;SDS011;2753;49.196;8.286;2022-12-10T04:39:51;41.87;;;20.40;;
5460;SDS011;2753;49.196;8.286;2022-12-10T04:42:17;44.83;;;21.90;;
5460;SDS011;2753;49.196;8.286;2022-12-10T04:44:43;44.50;;;18.53;;
5460;SDS011;2753;49.196;8.286;2022-12-10T04:47:10;48.57;;;21.90;;
5460;SDS011;2753;49.196;8.286;2022-12-10T04:49:36;46.00;;;21.20;;
5460;SDS011;2753;49.196;8.286;2022-12-10T04:52:03;43.63;;;21.93;;
5460;SDS011;2753;49.196;8.286;2022-12-10T04:54:29;43.73;;;22.90;;
5460;SDS011;2753;49.196;8.286;2022-12-10T04:56:55;48.47;;;20.97;;
5460;SDS011;2753;49.196;8.286;2022-12-10T04:59:21;46.43;;;21.97;;
5460;SDS011;2753;49.196;8.286;2022-12-10T05:01:47;42.73;;;20.77;;
5460;SDS011;2753;49.196;8.286;2022-12-10T05:04:14;45.67;;;20.93;;
5460;SDS011;2753;49.196;8.286;2022-12-10T05:06:41;42.47;;;19.80;;
5460;SDS011;2753;49.196;8.286;2022-12-10T05:09:09;44.53;;;21.47;;
5460;SDS011;2753;49.196;8.286;2022-12-10T05:11:36;37.97;;;18.83;;
5460;SDS011;2753;49.196;8.286;2022-12-10T05:14:02;37.17;;;19.50;;
5460;SDS011;2753;49.196;8.286;2022-12-10T05:16:28;44.03;;;19.77;;
5460;SDS011;2753;49.196;8.286;2022-12-10T05:18:55;40.00;;;18.83;;
5460;SDS011;2753;49.196;8.286;2022-12-10T05:21:22;41.07;;;21.17;;
5460;SDS011;2753;49.196;8.286;2022-12-10T05:23:51;40.60;;;21.00;;
5460;SDS011;2753;49.196;8.286;2022-12-10T05:28:51;40.40;;;20.00;;
5460;SDS011;2753;49.196;8.286;2022-12-10T05:31:26;39.20;;;18.60;;
5460;SDS011;2753;49.196;8.286;2022-12-10T05:33:53;44.30;;;20.57;;
5460;SDS011;2753;49.196;8.286;2022-12-10T05:36:21;42.83;;;20.20;;
5460;SDS011;2753;49.196;8.286;2022-12-10T05:38:51;39.83;;;21.13;;
5460;SDS011;2753;49.196;8.286;2022-12-10T05:41:18;35.20;;;18.17;;
5460;SDS011;2753;49.196;8.286;2022-12-10T05:43:46;47.57;;;20.83;;
5460;SDS011;2753;49.196;8.286;2022-12-10T05:46:15;39.30;;;19.73;;
5460;SDS011;2753;49.196;8.286;2022-12-10T05:48:45;43.40;;;21.30;;
5460;SDS011;2753;49.196;8.286;2022-12-10T05:51:12;39.23;;;20.37;;
5460;SDS011;2753;49.196;8.286;2022-12-10T05:53:39;39.10;;;20.07;;
5460;SDS011;2753;49.196;8.286;2022-12-10T05:56:15;40.20;;;19.73;;
5460;SDS011;2753;49.196;8.286;2022-12-10T05:58:46;44.77;;;20.73;;
5460;SDS011;2753;49.196;8.286;2022-12-10T06:01:14;40.80;;;18.03;;
5460;SDS011;2753;49.196;8.286;2022-12-10T06:03:45;40.57;;;17.93;;
5460;SDS011;2753;49.196;8.286;2022-12-10T06:06:11;35.07;;;17.50;;
5460;SDS011;2753;49.196;8.286;2022-12-10T06:08:37;37.43;;;19.07;;
5460;SDS011;2753;49.196;8.286;2022-12-10T06:11:05;40.50;;;19.70;;
5460;SDS011;2753;49.196;8.286;2022-12-10T06:13:32;38.70;;;18.40;;
5460;SDS011;2753;49.196;8.286;2022-12-10T06:15:58;45.53;;;20.40;;
5460;SDS011;2753;49.196;8.286;2022-12-10T06:18:24;37.47;;;17.63;;
5460;SDS011;2753;49.196;8.286;2022-12-10T06:20:50;40.17;;;19.63;;
5460;SDS011;2753;49.196;8.286;2022-12-10T06:23:16;35.73;;;17.90;;
5460;SDS011;2753;49.196;8.286;2022-12-10T06:25:42;40.40;;;18.40;;
5460;SDS011;2753;49.196;8.286;2022-12-10T06:28:07;41.63;;;17.80;;
5460;SDS011;2753;49.196;8.286;2022-12-10T06:30:34;35.50;;;17.53;;
5460;SDS011;2753;49.196;8.286;2022-12-10T06:33:00;40.70;;;19.13;;
5460;SDS011;2753;49.196;8.286;2022-12-10T06:35:26;39.83;;;17.80;;
5460;SDS011;2753;49.196;8.286;2022-12-10T06:37:52;44.17;;;19.03;;
5460;SDS011;2753;49.196;8.286;2022-12-10T06:40:18;38.40;;;18.63;;
5460;SDS011;2753;49.196;8.286;2022-12-10T06:42:43;32.07;;;17.00;;
5460;SDS011;2753;49.196;8.286;2022-12-10T06:45:10;36.00;;;16.00;;
5460;SDS011;2753;49.196;8.286;2022-12-10T06:47:36;35.90;;;18.97;;
5460;SDS011;2753;49.196;8.286;2022-12-10T06:50:01;43.80;;;17.83;;
5460;SDS011;2753;49.196;8.286;2022-12-10T06:52:28;37.60;;;18.77;;
5460;SDS011;2753;49.196;8.286;2022-12-10T06:54:53;36.80;;;18.27;;
5460;SDS011;2753;49.196;8.286;2022-12-10T06:57:20;33.00;;;17.17;;
5460;SDS011;2753;49.196;8.286;2022-12-10T06:59:46;37.40;;;18.17;;
5460;SDS011;2753;49.196;8.286;2022-12-10T07:02:11;35.40;;;17.20;;
5460;SDS011;2753;49.196;8.286;2022-12-10T07:04:37;36.37;;;16.83;;
5460;SDS011;2753;49.196;8.286;2022-12-10T07:07:04;35.10;;;18.00;;
5460;SDS011;2753;49.196;8.286;2022-12-10T07:09:31;30.47;;;15.90;;
5460;SDS011;2753;49.196;8.286;2022-12-10T07:11:58;34.80;;;15.70;;
5460;SDS011;2753;49.196;8.286;2022-12-10T07:14:23;34.53;;;15.60;;
5460;SDS011;2753;49.196;8.286;2022-12-10T07:16:49;34.77;;;16.80;;
5460;SDS011;2753;49.196;8.286;2022-12-10T07:19:15;30.33;;;17.57;;
5460;SDS011;2753;49.196;8.286;2022-12-10T07:21:41;28.63;;;14.43;;
5460;SDS011;2753;49.196;8.286;2022-12-10T07:24:12;36.00;;;16.90;;
5460;SDS011;2753;49.196;8.286;2022-12-10T07:26:40;30.87;;;14.70;;
5460;SDS011;2753;49.196;8.286;2022-12-10T07:29:09;32.53;;;15.83;;
5460;SDS011;2753;49.196;8.286;2022-12-10T07:31:39;34.47;;;18.37;;
5460;SDS011;2753;49.196;8.286;2022-12-10T07:34:05;33.90;;;16.77;;
5460;SDS011;2753;49.196;8.286;2022-12-10T07:36:31;31.97;;;17.77;;
5460;SDS011;2753;49.196;8.286;2022-12-10T07:38:57;29.23;;;14.60;;
5460;SDS011;2753;49.196;8.286;2022-12-10T07:41:24;32.30;;;14.63;;
5460;SDS011;2753;49.196;8.286;2022-12-10T07:43:50;29.97;;;14.87;;
5460;SDS011;2753;49.196;8.286;2022-12-10T07:48:44;32.77;;;15.87;;
5460;SDS011;2753;49.196;8.286;2022-12-10T07:51:12;34.33;;;16.33;;
5460;SDS011;2753;49.196;8.286;2022-12-10T07:53:38;28.10;;;14.70;;
5460;SDS011;2753;49.196;8.286;2022-12-10T07:56:04;32.30;;;16.17;;
5460;SDS011;2753;49.196;8.286;2022-12-10T07:58:30;37.90;;;17.10;;
5460;SDS011;2753;49.196;8.286;2022-12-10T08:00:56;29.60;;;15.67;;
5460;SDS011;2753;49.196;8.286;2022-12-10T08:03:21;28.40;;;14.53;;
5460;SDS011;2753;49.196;8.286;2022-12-10T08:05:48;33.40;;;17.20;;
5460;SDS011;2753;49.196;8.286;2022-12-10T08:08:25;28.13;;;15.87;;
5460;SDS011;2753;49.196;8.286;2022-12-10T08:10:50;35.73;;;15.17;;
5460;SDS011;2753;49.196;8.286;2022-12-10T08:13:16;34.03;;;15.53;;
5460;SDS011;2753;49.196;8.286;2022-12-10T08:15:42;28.40;;;14.87;;
5460;SDS011;2753;49.196;8.286;2022-12-10T08:18:07;27.63;;;14.90;;
5460;SDS011;2753;49.196;8.286;2022-12-10T08:20:33;26.67;;;14.90;;
5460;SDS011;2753;49.196;8.286;2022-12-10T08:23:00;29.13;;;14.20;;
5460;SDS011;2753;49.196;8.286;2022-12-10T08:25:26;31.47;;;15.50;;
5460;SDS011;2753;49.196;8.286;2022-12-10T08:27:52;24.43;;;13.77;;
5460;SDS011;2753;49.196;8.286;2022-12-10T08:30:18;33.00;;;14.90;;
5460;SDS011;2753;49.196;8.286;2022-12-10T08:32:43;27.37;;;14.80;;
5460;SDS011;2753;49.196;8.286;2022-12-10T08:35:09;33.23;;;15.23;;
5460;SDS011;2753;49.196;8.286;2022-12-10T08:37:35;34.67;;;14.40;;
5460;SDS011;2753;49.196;8.286;2022-12-10T08:40:00;28.97;;;14.67;;
5460;SDS011;2753;49.196;8.286;2022-12-10T08:42:26;24.93;;;13.80;;
5460;SDS011;2753;49.196;8.286;2022-12-10T08:44:52;29.07;;;15.20;;
5460;SDS011;2753;49.196;8.286;2022-12-10T08:47:18;27.80;;;13.77;;
5460;SDS011;2753;49.196;8.286;2022-12-10T08:49:44;33.77;;;15.97;;
5460;SDS011;2753;49.196;8.286;2022-12-10T08:52:09;28.00;;;13.40;;
5460;SDS011;2753;49.196;8.286;2022-12-10T08:54:35;28.03;;;15.50;;
5460;SDS011;2753;49.196;8.286;2022-12-10T08:57:01;27.20;;;14.37;;
5460;SDS011;2753;49.196;8.286;2022-12-10T08:59:27;23.20;;;12.77;;
5460;SDS011;2753;49.196;8.286;2022-12-10T09:01:53;27.03;;;14.00;;
5460;SDS011;2753;49.196;8.286;2022-12-10T09:04:19;27.10;;;13.33;;
5460;SDS011;2753;49.196;8.286;2022-12-10T09:06:45;23.17;;;13.53;;
5460;SDS011;2753;49.196;8.286;2022-12-10T09:09:11;24.90;;;12.17;;
5460;SDS011;2753;49.196;8.286;2022-12-10T09:11:36;24.53;;;13.90;;
5460;SDS011;2753;49.196;8.286;2022-12-10T09:14:03;18.67;;;10.53;;
5460;SDS011;2753;49.196;8.286;2022-12-10T09:16:35;22.97;;;12.63;;
5460;SDS011;2753;49.196;8.286;2022-12-10T09:19:02;20.00;;;11.63;;
5460;SDS011;2753;49.196;8.286;2022-12-10T09:21:29;29.20;;;11.20;;
5460;SDS011;2753;49.196;8.286;2022-12-10T09:23:55;19.13;;;12.07;;
5460;SDS011;2753;49.196;8.286;2022-12-10T09:26:21;24.30;;;11.90;;
5460;SDS011;2753;49.196;8.286;2022-12-10T09:28:47;20.10;;;10.50;;
5460;SDS011;2753;49.196;8.286;2022-12-10T09:31:14;30.40;;;12.53;;
5460;SDS011;2753;49.196;8.286;2022-12-10T09:33:41;24.93;;;11.97;;
5460;SDS011;2753;49.196;8.286;2022-12-10T09:36:08;28.47;;;12.40;;
5460;SDS011;2753;49.196;8.286;2022-12-10T09:38:36;24.87;;;11.77;;
5460;SDS011;2753;49.196;8.286;2022-12-10T09:51:57;17.83;;;10.47;;
5460;SDS011;2753;49.196;8.286;2022-12-10T09:56:52;21.80;;;11.73;;
5460;SDS011;2753;49.196;8.286;2022-12-10T10:04:28;22.67;;;11.30;;
5460;SDS011;2753;49.196;8.286;2022-12-10T10:06:54;23.43;;;12.03;;
5460;SDS011;2753;49.196;8.286;2022-12-10T10:09:20;25.50;;;11.60;;
5460;SDS011;2753;49.196;8.286;2022-12-10T10:11:46;22.33;;;13.50;;
5460;SDS011;2753;49.196;8.286;2022-12-10T10:14:14;19.80;;;11.47;;
5460;SDS011;2753;49.196;8.286;2022-12-10T10:16:51;18.53;;;11.53;;
5460;SDS011;2753;49.196;8.286;2022-12-10T10:19:27;24.50;;;12.10;;
5460;SDS011;2753;49.196;8.286;2022-12-10T10:21:55;22.13;;;12.57;;
5460;SDS011;2753;49.196;8.286;2022-12-10T10:24:42;21.70;;;12.30;;
5460;SDS011;2753;49.196;8.286;2022-12-10T10:27:18;22.30;;;11.13;;
5460;SDS011;2753;49.196;8.286;2022-12-10T10:29:49;20.93;;;12.47;;
5460;SDS011;2753;49.196;8.286;2022-12-10T10:34:47;23.17;;;13.77;;
5460;SDS011;2753;49.196;8.286;2022-12-10T10:37:20;24.30;;;12.93;;
5460;SDS011;2753;49.196;8.286;2022-12-10T10:39:56;21.87;;;11.87;;
5460;SDS011;2753;49.196;8.286;2022-12-10T10:42:38;24.53;;;13.10;;
5460;SDS011;2753;49.196;8.286;2022-12-10T10:45:33;23.80;;;12.50;;
5460;SDS011;2753;49.196;8.286;2022-12-10T10:50:43;23.50;;;12.80;;
5460;SDS011;2753;49.196;8.286;2022-12-10T10:56:07;21.07;;;11.87;;
5460;SDS011;2753;49.196;8.286;2022-12-10T10:58:35;23.60;;;12.30;;
5460;SDS011;2753;49.196;8.286;2022-12-10T11:01:11;21.30;;;11.63;;
5460;SDS011;2753;49.196;8.286;2022-12-10T11:03:37;23.63;;;13.60;;
5460;SDS011;2753;49.196;8.286;2022-12-10T11:06:12;20.50;;;11.40;;
5460;SDS011;2753;49.196;8.286;2022-12-10T11:08:39;22.13;;;11.80;;
5460;SDS011;2753;49.196;8.286;2022-12-10T11:11:12;20.20;;;11.57;;
5460;SDS011;2753;49.196;8.286;2022-12-10T11:13:44;17.63;;;11.20;;
5460;SDS011;2753;49.196;8.286;2022-12-10T11:18:38;18.07;;;9.43;;
5460;SDS011;2753;49.196;8.286;2022-12-10T11:21:15;17.63;;;10.10;;
5460;SDS011;2753;49.196;8.286;2022-12-10T11:23:43;19.50;;;10.27;;
5460;SDS011;2753;49.196;8.286;2022-12-10T11:40:45;18.97;;;10.83;;
5460;SDS011;2753;49.196;8.286;2022-12-10T11:51:34;25.53;;;9.53;;
5460;SDS011;2753;49.196;8.286;2022-12-10T12:00:03;15.17;;;10.00;;
5460;SDS011;2753;49.196;8.286;2022-12-10T12:13:59;14.37;;;9.60;;
5460;SDS011;2753;49.196;8.286;2022-12-10T12:16:32;14.90;;;9.03;;
5460;SDS011;2753;49.196;8.286;2022-12-10T12:19:03;16.33;;;9.27;;
5460;SDS011;2753;49.196;8.286;2022-12-10T12:21:34;15.87;;;10.40;;
5460;SDS011;2753;49.196;8.286;2022-12-10T12:24:46;16.53;;;9.40;;
5460;SDS011;2753;49.196;8.286;2022-12-10T12:26:53;17.37;;;10.03;;
5460;SDS011;2753;49.196;8.286;2022-12-10T12:29:25;20.70;;;11.00;;
5460;SDS011;2753;49.196;8.286;2022-12-10T12:50:34;21.27;;;12.27;;
5460;SDS011;2753;49.196;8.286;2022-12-10T13:01:25;19.43;;;11.03;;
5460;SDS011;2753;49.196;8.286;2022-12-10T13:04:00;18.23;;;9.47;;
5460;SDS011;2753;49.196;8.286;2022-12-10T13:06:29;16.67;;;10.00;;
5460;SDS011;2753;49.196;8.286;2022-12-10T13:19:24;11.80;;;8.10;;
5460;SDS011;2753;49.196;8.286;2022-12-10T13:27:15;17.27;;;8.47;;
5460;SDS011;2753;49.196;8.286;2022-12-10T13:29:55;19.23;;;11.00;;
5460;SDS011;2753;49.196;8.286;2022-12-10T13:46:21;15.10;;;9.00;;
5460;SDS011;2753;49.196;8.286;2022-12-10T13:48:53;16.23;;;8.10;;
5460;SDS011;2753;49.196;8.286;2022-12-10T13:51:42;14.73;;;10.00;;
5460;SDS011;2753;49.196;8.286;2022-12-10T13:57:15;15.97;;;10.03;;
5460;SDS011;2753;49.196;8.286;2022-12-10T14:08:23;17.00;;;9.93;;
5460;SDS011;2753;49.196;8.286;2022-12-10T14:10:53;14.33;;;9.07;;
5460;SDS011;2753;49.196;8.286;2022-12-10T14:13:21;19.60;;;10.13;;
5460;SDS011;2753;49.196;8.286;2022-12-10T14:16:11;17.63;;;8.93;;
5460;SDS011;2753;49.196;8.286;2022-12-10T14:18:43;16.50;;;10.03;;
5460;SDS011;2753;49.196;8.286;2022-12-10T14:21:14;16.60;;;10.80;;
5460;SDS011;2753;49.196;8.286;2022-12-10T14:23:44;15.20;;;9.60;;
5460;SDS011;2753;49.196;8.286;2022-12-10T14:26:21;13.77;;;8.63;;
5460;SDS011;2753;49.196;8.286;2022-12-10T14:33:59;18.57;;;11.87;;
5460;SDS011;2753;49.196;8.286;2022-12-10T14:36:31;19.80;;;12.50;;
5460;SDS011;2753;49.196;8.286;2022-12-10T14:38:59;23.20;;;13.47;;
5460;SDS011;2753;49.196;8.286;2022-12-10T14:41:26;18.97;;;11.00;;
5460;SDS011;2753;49.196;8.286;2022-12-10T14:43:55;27.20;;;16.40;;
5460;SDS011;2753;49.196;8.286;2022-12-10T14:46:28;23.50;;;14.20;;
5460;SDS011;2753;49.196;8.286;2022-12-10T14:48:56;22.40;;;13.07;;
5460;SDS011;2753;49.196;8.286;2022-12-10T14:51:23;19.50;;;11.07;;
5460;SDS011;2753;49.196;8.286;2022-12-10T14:53:53;22.67;;;12.87;;
5460;SDS011;2753;49.196;8.286;2022-12-10T14:56:27;20.27;;;11.63;;
5460;SDS011;2753;49.196;8.286;2022-12-10T14:59:02;16.93;;;9.77;;
5460;SDS011;2753;49.196;8.286;2022-12-10T15:01:38;22.40;;;12.50;;
5460;SDS011;2753;49.196;8.286;2022-12-10T15:04:11;26.60;;;15.03;;
5460;SDS011;2753;49.196;8.286;2022-12-10T15:06:40;26.70;;;14.57;;
5460;SDS011;2753;49.196;8.286;2022-12-10T15:09:12;24.33;;;13.93;;
5460;SDS011;2753;49.196;8.286;2022-12-10T15:11:44;29.37;;;16.10;;
5460;SDS011;2753;49.196;8.286;2022-12-10T15:14:18;27.87;;;14.90;;
5460;SDS011;2753;49.196;8.286;2022-12-10T15:16:46;115.00;;;25.70;;
5460;SDS011;2753;49.196;8.286;2022-12-10T15:19:30;68.60;;;23.70;;
5460;SDS011;2753;49.196;8.286;2022-12-10T15:22:02;24.67;;;13.77;;
5460;SDS011;2753;49.196;8.286;2022-12-10T15:24:43;28.30;;;13.93;;
5460;SDS011;2753;49.196;8.286;2022-12-10T15:27:22;38.30;;;18.10;;
5460;SDS011;2753;49.196;8.286;2022-12-10T15:29:50;31.40;;;18.10;;
5460;SDS011;2753;49.196;8.286;2022-12-10T15:32:27;40.30;;;20.80;;
5460;SDS011;2753;49.196;8.286;2022-12-10T15:35:04;44.30;;;20.73;;
5460;SDS011;2753;49.196;8.286;2022-12-10T15:37:38;50.20;;;20.70;;
5460;SDS011;2753;49.196;8.286;2022-12-10T15:40:06;43.70;;;19.87;;
5460;SDS011;2753;49.196;8.286;2022-12-10T15:42:46;28.77;;;13.83;;
5460;SDS011;2753;49.196;8.286;2022-12-10T15:47:47;67.97;;;24.00;;
5460;SDS011;2753;49.196;8.286;2022-12-10T15:50:14;43.83;;;19.17;;
5460;SDS011;2753;49.196;8.286;2022-12-10T15:52:40;85.70;;;42.97;;
5460;SDS011;2753;49.196;8.286;2022-12-10T15:55:07;70.37;;;26.60;;
5460;SDS011;2753;49.196;8.286;2022-12-10T15:57:34;77.53;;;27.10;;
5460;SDS011;2753;49.196;8.286;2022-12-10T16:07:40;26.60;;;13.23;;
5460;SDS011;2753;49.196;8.286;2022-12-10T16:10:06;23.00;;;13.40;;
5460;SDS011;2753;49.196;8.286;2022-12-10T16:12:35;25.80;;;13.23;;
5460;SDS011;2753;49.196;8.286;2022-12-10T16:15:02;24.57;;;13.70;;
5460;SDS011;2753;49.196;8.286;2022-12-10T16:17:29;23.40;;;14.47;;
5460;SDS011;2753;49.196;8.286;2022-12-10T16:20:16;22.53;;;12.50;;
5460;SDS011;2753;49.196;8.286;2022-12-10T16:22:45;24.70;;;13.10;;
5460;SDS011;2753;49.196;8.286;2022-12-10T16:25:12;24.93;;;13.67;;
5460;SDS011;2753;49.196;8.286;2022-12-10T16:27:39;24.73;;;13.13;;
5460;SDS011;2753;49.196;8.286;2022-12-10T16:33:05;22.00;;;12.20;;
5460;SDS011;2753;49.196;8.286;2022-12-10T16:35:31;21.43;;;12.67;;
5460;SDS011;2753;49.196;8.286;2022-12-10T16:37:57;22.97;;;12.33;;
5460;SDS011;2753;49.196;8.286;2022-12-10T16:40:25;21.97;;;13.53;;
5460;SDS011;2753;49.196;8.286;2022-12-10T16:42:52;30.97;;;12.37;;
5460;SDS011;2753;49.196;8.286;2022-12-10T16:45:19;25.47;;;13.27;;
5460;SDS011;2753;49.196;8.286;2022-12-10T16:47:53;29.83;;;17.50;;
5460;SDS011;2753;49.196;8.286;2022-12-10T16:50:19;41.43;;;22.13;;
5460;SDS011;2753;49.196;8.286;2022-12-10T16:52:46;40.23;;;22.30;;
5460;SDS011;2753;49.196;8.286;2022-12-10T16:55:16;42.57;;;22.93;;
5460;SDS011;2753;49.196;8.286;2022-12-10T16:57:44;31.67;;;15.90;;
5460;SDS011;2753;49.196;8.286;2022-12-10T17:00:14;31.33;;;14.57;;
5460;SDS011;2753;49.196;8.286;2022-12-10T17:02:42;23.43;;;11.90;;
5460;SDS011;2753;49.196;8.286;2022-12-10T17:05:11;18.77;;;11.60;;
5460;SDS011;2753;49.196;8.286;2022-12-10T17:07:44;22.07;;;11.43;;
5460;SDS011;2753;49.196;8.286;2022-12-10T17:10:11;17.50;;;10.93;;
5460;SDS011;2753;49.196;8.286;2022-12-10T17:12:37;25.53;;;11.80;;
5460;SDS011;2753;49.196;8.286;2022-12-10T17:15:04;26.67;;;15.15;;
5460;SDS011;2753;49.196;8.286;2022-12-10T17:17:30;22.93;;;13.20;;
5460;SDS011;2753;49.196;8.286;2022-12-10T17:19:56;20.80;;;11.80;;
5460;SDS011;2753;49.196;8.286;2022-12-10T17:22:22;23.53;;;11.13;;
5460;SDS011;2753;49.196;8.286;2022-12-10T17:24:48;19.90;;;11.73;;
5460;SDS011;2753;49.196;8.286;2022-12-10T17:27:15;19.53;;;11.63;;
5460;SDS011;2753;49.196;8.286;2022-12-10T17:29:44;28.50;;;13.60;;
5460;SDS011;2753;49.196;8.286;2022-12-10T17:32:17;25.50;;;14.40;;
5460;SDS011;2753;49.196;8.286;2022-12-10T17:34:44;27.13;;;14.67;;
5460;SDS011;2753;49.196;8.286;2022-12-10T17:37:11;25.87;;;15.00;;
5460;SDS011;2753;49.196;8.286;2022-12-10T17:39:43;22.17;;;13.27;;
5460;SDS011;2753;49.196;8.286;2022-12-10T17:42:09;27.73;;;15.47;;
5460;SDS011;2753;49.196;8.286;2022-12-10T17:44:35;22.23;;;14.33;;
5460;SDS011;2753;49.196;8.286;2022-12-10T17:47:05;26.83;;;14.37;;
5460;SDS011;2753;49.196;8.286;2022-12-10T17:49:47;28.03;;;13.93;;
5460;SDS011;2753;49.196;8.286;2022-12-10T17:52:22;26.13;;;15.20;;
5460;SDS011;2753;49.196;8.286;2022-12-10T17:54:52;24.90;;;16.00;;
5460;SDS011;2753;49.196;8.286;2022-12-10T17:57:19;28.83;;;15.67;;
5460;SDS011;2753;49.196;8.286;2022-12-10T17:59:47;30.40;;;15.67;;
5460;SDS011;2753;49.196;8.286;2022-12-10T18:02:13;35.47;;;17.53;;
5460;SDS011;2753;49.196;8.286;2022-12-10T18:04:39;31.10;;;16.13;;
5460;SDS011;2753;49.196;8.286;2022-12-10T18:07:10;34.00;;;16.40;;